createdAt,value
2018-07-07T00:00:36.079Z,96.08
2018-07-07T00:01:35.666Z,96.27
2018-07-07T00:02:35.362Z,96.37
2018-07-07T00:03:57.177Z,96.46
2018-07-07T00:05:18.945Z,96.46
2018-07-07T00:06:19.612Z,96.56
2018-07-07T00:07:19.024Z,96.66
2018-07-07T00:08:31.593Z,97.03
2018-07-07T00:09:40.923Z,96.84
2018-07-07T00:10:40.626Z,96.94
2018-07-07T00:11:41.257Z,96.75
2018-07-07T00:12:40.934Z,96.84
2018-07-07T00:13:40.769Z,96.94
2018-07-07T00:14:41.448Z,97.03
2018-07-07T00:15:42.386Z,96.94
2018-07-07T00:16:41.161Z,97.03
2018-07-07T00:18:01.784Z,97.03
2018-07-07T00:19:02.332Z,97.13
2018-07-07T00:20:02.649Z,97.13
2018-07-07T00:21:02.181Z,97.32
2018-07-07T00:22:02.775Z,97.32
2018-07-07T00:23:02.510Z,97.23
2018-07-07T00:24:23.586Z,97.23
2018-07-07T00:25:24.330Z,97.23
2018-07-07T00:26:45.303Z,97.32
2018-07-07T00:27:46.184Z,97.32
2018-07-07T00:29:07.179Z,97.32
2018-07-07T00:30:07.908Z,97.52
2018-07-07T00:31:07.623Z,97.42
2018-07-07T00:32:07.111Z,97.42
2018-07-07T00:33:07.746Z,97.42
2018-07-07T00:34:07.428Z,97.42
2018-07-07T00:35:07.837Z,97.42
2018-07-07T00:36:07.509Z,97.37
2018-07-07T00:37:07.215Z,97.47
2018-07-07T00:38:08.064Z,97.47
2018-07-07T00:39:07.524Z,97.37
2018-07-07T00:40:07.873Z,97.56
2018-07-07T00:41:07.379Z,97.47
2018-07-07T00:42:08.197Z,97.27
2018-07-07T00:43:07.556Z,97.66
2018-07-07T00:44:07.358Z,97.66
2018-07-07T00:45:08.185Z,97.66
2018-07-07T00:46:07.619Z,97.66
2018-07-07T00:47:07.011Z,97.66
2018-07-07T00:48:07.306Z,97.94
2018-07-07T00:49:08.011Z,97.75
2018-07-07T00:50:07.513Z,97.47
2018-07-07T00:51:07.014Z,97.56
2018-07-07T00:52:07.393Z,97.94
2018-07-07T00:53:06.901Z,97.94
2018-07-07T00:54:49.868Z,98.03
2018-07-07T00:55:50.279Z,97.94
2018-07-07T00:56:49.771Z,97.85
2018-07-07T00:57:50.524Z,97.94
2018-07-07T00:58:50.191Z,97.94
2018-07-07T00:59:50.743Z,97.94
2018-07-07T01:00:50.277Z,98.03
2018-07-07T01:01:49.730Z,98.03
2018-07-07T01:02:50.421Z,97.94
2018-07-07T01:03:49.863Z,97.94
2018-07-07T01:04:50.464Z,98.03
2018-07-07T01:05:49.906Z,97.94
2018-07-07T01:06:50.287Z,97.80
2018-07-07T01:08:11.095Z,97.99
2018-07-07T01:09:11.617Z,97.99
2018-07-07T01:10:11.874Z,97.89
2018-07-07T01:11:32.544Z,97.61
2018-07-07T01:12:54.148Z,97.80
2018-07-07T01:13:54.795Z,97.71
2018-07-07T01:15:15.631Z,97.61
2018-07-07T01:16:16.045Z,97.51
2018-07-07T01:17:16.436Z,97.22
2018-07-07T01:18:16.094Z,97.03
2018-07-07T01:19:15.622Z,97.13
2018-07-07T01:20:16.192Z,96.75
2018-07-07T01:21:15.671Z,97.22
2018-07-07T01:22:16.094Z,97.22
2018-07-07T01:23:16.639Z,97.22
2018-07-07T01:24:16.026Z,97.22
2018-07-07T01:25:15.802Z,97.03
2018-07-07T01:26:16.229Z,97.13
2018-07-07T01:27:15.880Z,97.22
2018-07-07T01:28:15.655Z,97.03
2018-07-07T01:29:16.362Z,97.03
2018-07-07T01:30:37.342Z,97.22
2018-07-07T01:31:59.133Z,97.13
2018-07-07T01:33:20.964Z,97.03
2018-07-07T01:34:21.838Z,97.03
2018-07-07T01:35:21.506Z,97.03
2018-07-07T01:36:21.036Z,97.13
2018-07-07T01:37:21.966Z,97.13
2018-07-07T01:38:21.406Z,97.22
2018-07-07T01:39:20.910Z,97.13
2018-07-07T01:40:21.436Z,97.32
2018-07-07T01:41:20.836Z,97.42
2018-07-07T01:42:21.617Z,97.42
2018-07-07T01:43:42.456Z,97.51
2018-07-07T01:44:43.033Z,97.61
2018-07-07T01:45:42.407Z,97.99
2018-07-07T01:46:42.964Z,97.80
2018-07-07T01:47:42.444Z,97.80
2018-07-07T01:48:42.863Z,97.80
2018-07-07T01:49:42.604Z,97.66
2018-07-07T01:50:43.153Z,97.56
2018-07-07T01:51:42.988Z,97.66
2018-07-07T01:52:42.657Z,97.37
2018-07-07T01:53:42.071Z,97.46
2018-07-07T01:54:42.628Z,97.56
2018-07-07T01:55:43.096Z,97.37
2018-07-07T01:56:42.508Z,97.17
2018-07-07T01:57:42.905Z,97.17
2018-07-07T01:58:42.308Z,96.61
2018-07-07T01:59:43.080Z,96.61
2018-07-07T02:00:42.684Z,96.70
2018-07-07T02:01:42.666Z,96.41
2018-07-07T02:02:43.310Z,96.41
2018-07-07T02:03:42.942Z,96.22
2018-07-07T02:04:42.473Z,95.94
2018-07-07T02:05:43.206Z,95.94
2018-07-07T02:06:42.653Z,96.03
2018-07-07T02:07:43.006Z,95.84
2018-07-07T02:08:42.664Z,95.75
2018-07-07T02:09:43.116Z,95.84
2018-07-07T02:11:25.956Z,96.03
2018-07-07T02:12:48.254Z,95.94
2018-07-07T02:13:48.984Z,95.75
2018-07-07T02:14:48.576Z,95.84
2018-07-07T02:15:48.472Z,95.65
2018-07-07T02:16:49.083Z,95.94
2018-07-07T02:17:48.537Z,95.84
2018-07-07T02:18:48.137Z,95.27
2018-07-07T02:19:48.581Z,95.56
2018-07-07T02:20:48.159Z,95.17
2018-07-07T02:21:48.700Z,95.46
2018-07-07T02:22:48.058Z,95.17
2018-07-07T02:23:48.638Z,95.08
2018-07-07T02:24:48.222Z,95.17
2018-07-07T02:25:48.535Z,95.17
2018-07-07T02:26:48.205Z,94.41
2018-07-07T02:28:31.665Z,94.22
2018-07-07T02:29:32.034Z,94.41
2018-07-07T02:30:31.580Z,94.41
2018-07-07T02:31:32.314Z,94.51
2018-07-07T02:32:53.483Z,94.22
2018-07-07T02:33:54.149Z,93.93
2018-07-07T02:34:53.414Z,93.84
2018-07-07T02:35:54.062Z,93.84
2018-07-07T02:36:53.441Z,93.74
2018-07-07T02:37:53.928Z,93.65
2018-07-07T02:38:53.366Z,93.84
2018-07-07T02:39:54.000Z,93.55
2018-07-07T02:40:53.528Z,93.55
2018-07-07T02:41:54.066Z,93.65
2018-07-07T02:42:53.795Z,93.36
2018-07-07T02:44:40.278Z,92.36
2018-07-07T02:45:41.016Z,92.84
2018-07-07T02:46:40.479Z,93.03
2018-07-07T02:47:40.832Z,92.93
2018-07-07T02:48:40.625Z,92.46
2018-07-07T02:49:40.394Z,92.36
2018-07-07T02:50:45.250Z,92.27
2018-07-07T02:51:40.925Z,91.50
2018-07-07T02:52:40.302Z,91.22
2018-07-07T02:54:23.797Z,91.41
2018-07-07T02:55:24.610Z,90.93
2018-07-07T02:56:23.953Z,91.03
2018-07-07T02:57:24.422Z,91.13
2018-07-07T02:58:23.736Z,91.03
2018-07-07T02:59:24.558Z,90.55
2018-07-07T03:00:45.469Z,90.45
2018-07-07T03:01:45.934Z,90.26
2018-07-07T03:02:45.599Z,90.36
2018-07-07T03:03:46.028Z,91.13
2018-07-07T03:04:45.721Z,92.84
2018-07-07T03:06:07.949Z,92.65
2018-07-07T03:07:29.868Z,92.74
2018-07-07T03:08:30.374Z,92.74
2018-07-07T03:09:51.026Z,92.46
2018-07-07T03:10:51.618Z,92.36
2018-07-07T03:11:51.266Z,91.98
2018-07-07T03:12:51.792Z,91.22
2018-07-07T03:13:51.393Z,90.36
2018-07-07T03:14:51.799Z,89.69
2018-07-07T03:15:51.129Z,89.31
2018-07-07T03:16:51.802Z,88.93
2018-07-07T03:18:12.633Z,88.17
2018-07-07T03:19:34.584Z,87.98
2018-07-07T03:20:35.078Z,87.21
2018-07-07T03:21:34.762Z,87.31
2018-07-07T03:22:35.541Z,88.55
2018-07-07T03:23:34.867Z,89.98
2018-07-07T03:24:35.632Z,89.22
2018-07-07T03:25:35.507Z,90.26
2018-07-07T03:26:35.227Z,90.17
2018-07-07T03:27:35.097Z,89.89
2018-07-07T03:28:34.655Z,89.40
2018-07-07T03:29:35.194Z,87.50
2018-07-07T03:30:34.725Z,87.02
2018-07-07T03:31:35.187Z,87.79
2018-07-07T03:32:34.771Z,87.50
2018-07-07T03:33:35.053Z,87.27
2018-07-07T03:34:34.512Z,87.17
2018-07-07T03:35:34.863Z,87.36
2018-07-07T03:36:35.324Z,87.65
2018-07-07T03:37:35.158Z,87.07
2018-07-07T03:38:35.197Z,86.12
2018-07-07T03:39:55.973Z,85.84
2018-07-07T03:40:56.537Z,85.74
2018-07-07T03:41:56.297Z,84.98
2018-07-07T03:43:18.094Z,83.21
2018-07-07T03:44:18.430Z,82.92
2018-07-07T03:45:39.420Z,82.64
2018-07-07T03:46:40.100Z,82.54
2018-07-07T03:48:00.987Z,83.31
2018-07-07T03:49:01.592Z,82.83
2018-07-07T03:50:01.190Z,82.83
2018-07-07T03:51:44.452Z,81.88
2018-07-07T03:52:45.234Z,81.49
2018-07-07T03:53:44.681Z,81.30
2018-07-07T03:54:45.335Z,81.59
2018-07-07T03:55:44.938Z,81.49
2018-07-07T03:56:44.788Z,82.07
2018-07-07T03:57:45.602Z,81.68
2018-07-07T03:58:45.331Z,81.88
2018-07-07T03:59:44.800Z,82.17
2018-07-07T04:00:44.552Z,82.45
2018-07-07T04:01:45.243Z,83.31
2018-07-07T04:02:44.957Z,83.69
2018-07-07T04:03:44.481Z,83.88
2018-07-07T04:04:44.980Z,83.97
2018-07-07T04:05:44.479Z,84.55
2018-07-07T04:06:45.305Z,84.74
2018-07-07T04:07:45.051Z,85.02
2018-07-07T04:08:44.516Z,86.83
2018-07-07T04:09:45.122Z,87.02
2018-07-07T04:10:44.731Z,85.97
2018-07-07T04:11:45.585Z,86.45
2018-07-07T04:12:45.191Z,88.26
2018-07-07T04:13:44.865Z,87.69
2018-07-07T04:14:44.268Z,87.02
2018-07-07T04:15:45.031Z,86.55
2018-07-07T04:16:44.733Z,87.21
2018-07-07T04:17:45.522Z,88.26
2018-07-07T04:18:45.120Z,87.50
2018-07-07T04:19:44.922Z,88.07
2018-07-07T04:20:44.961Z,88.74
2018-07-07T04:21:44.529Z,88.17
2018-07-07T04:22:45.188Z,88.07
2018-07-07T04:23:44.726Z,86.74
2018-07-07T04:24:45.394Z,86.26
2018-07-07T04:25:44.856Z,86.45
2018-07-07T04:26:44.485Z,86.36
2018-07-07T04:27:45.114Z,86.74
2018-07-07T04:28:44.685Z,86.55
2018-07-07T04:29:45.265Z,85.88
2018-07-07T04:31:06.348Z,86.11
2018-07-07T04:32:06.970Z,85.25
2018-07-07T04:33:06.522Z,86.30
2018-07-07T04:34:07.351Z,86.02
2018-07-07T04:35:28.418Z,85.93
2018-07-07T04:36:29.277Z,86.21
2018-07-07T04:37:28.990Z,85.83
2018-07-07T04:38:28.588Z,85.54
2018-07-07T04:39:29.295Z,85.35
2018-07-07T04:40:28.972Z,84.97
2018-07-07T04:41:29.344Z,84.88
2018-07-07T04:42:28.806Z,85.11
2018-07-07T04:43:29.458Z,85.77
2018-07-07T04:44:50.333Z,86.35
2018-07-07T04:46:13.153Z,85.87
2018-07-07T04:47:13.714Z,85.68
2018-07-07T04:48:13.487Z,85.49
2018-07-07T04:49:14.349Z,85.77
2018-07-07T04:50:14.078Z,86.10
2018-07-07T04:51:35.595Z,86.20
2018-07-07T04:52:36.503Z,86.20
2018-07-07T04:53:36.083Z,86.49
2018-07-07T04:54:35.619Z,86.96
2018-07-07T04:55:35.998Z,86.96
2018-07-07T04:56:35.875Z,87.44
2018-07-07T04:57:35.817Z,87.73
2018-07-07T04:58:35.434Z,88.06
2018-07-07T04:59:36.139Z,88.06
2018-07-07T05:00:35.816Z,88.34
2018-07-07T05:01:35.472Z,88.54
2018-07-07T05:02:35.850Z,89.01
2018-07-07T05:04:39.310Z,89.59
2018-07-07T05:05:39.814Z,89.59
2018-07-07T05:06:39.335Z,89.68
2018-07-07T05:07:39.880Z,90.20
2018-07-07T05:08:39.435Z,90.39
2018-07-07T05:09:39.337Z,90.39
2018-07-07T05:10:39.244Z,90.59
2018-07-07T05:11:39.991Z,90.78
2018-07-07T05:12:39.973Z,91.16
2018-07-07T05:13:39.535Z,91.25
2018-07-07T05:14:39.542Z,91.78
2018-07-07T05:15:39.774Z,92.45
2018-07-07T05:16:39.592Z,92.64
2018-07-07T05:17:39.292Z,92.35
2018-07-07T05:18:40.123Z,92.64
2018-07-07T05:20:22.619Z,92.93
2018-07-07T05:21:23.390Z,93.07
2018-07-07T05:22:23.319Z,92.30
2018-07-07T05:23:23.424Z,92.30
2018-07-07T05:24:22.875Z,92.21
2018-07-07T05:25:23.443Z,91.63
2018-07-07T05:26:22.943Z,91.73
2018-07-07T05:27:22.576Z,92.11
2018-07-07T05:28:23.165Z,91.53
2018-07-07T05:29:22.988Z,92.49
2018-07-07T05:30:23.890Z,92.73
2018-07-07T05:31:23.654Z,92.83
2018-07-07T05:32:23.668Z,93.21
2018-07-07T05:33:23.335Z,93.02
2018-07-07T05:34:45.766Z,94.26
2018-07-07T05:35:46.802Z,94.50
2018-07-07T05:37:06.982Z,94.21
2018-07-07T05:38:07.864Z,94.12
2018-07-07T05:39:07.356Z,95.65
2018-07-07T05:40:08.008Z,95.46
2018-07-07T05:41:08.766Z,95.41
2018-07-07T05:42:07.192Z,95.79
2018-07-07T05:43:29.385Z,95.70
2018-07-07T05:44:30.307Z,96.18
2018-07-07T05:45:30.171Z,96.18
2018-07-07T05:46:29.701Z,95.60
2018-07-07T05:47:30.387Z,96.08
2018-07-07T05:48:30.307Z,96.47
2018-07-07T05:49:31.184Z,96.27
2018-07-07T05:50:29.893Z,96.56
2018-07-07T05:51:29.375Z,95.98
2018-07-07T05:52:29.811Z,95.98
2018-07-07T05:53:51.310Z,95.89
2018-07-07T05:54:52.126Z,96.32
2018-07-07T05:55:53.709Z,96.99
2018-07-07T05:56:51.722Z,96.89
2018-07-07T05:57:51.694Z,97.76
2018-07-07T05:58:51.743Z,97.66
2018-07-07T05:59:52.953Z,97.66
2018-07-07T06:00:51.878Z,97.66
2018-07-07T06:01:52.221Z,97.61
2018-07-07T06:02:51.819Z,97.71
2018-07-07T06:03:51.733Z,97.71
2018-07-07T06:04:52.532Z,97.61
2018-07-07T06:05:51.457Z,98.00
2018-07-07T06:06:54.123Z,97.71
2018-07-07T06:07:51.615Z,97.71
2018-07-07T06:08:51.084Z,97.90
2018-07-07T06:09:51.574Z,97.71
2018-07-07T06:10:51.301Z,97.95
2018-07-07T06:11:52.242Z,97.86
2018-07-07T06:12:51.862Z,97.95
2018-07-07T06:13:51.408Z,97.86
2018-07-07T06:14:51.339Z,97.95
2018-07-07T06:15:51.667Z,97.76
2018-07-07T06:16:51.673Z,97.76
2018-07-07T06:17:51.706Z,97.76
2018-07-07T06:18:51.384Z,97.76
2018-07-07T06:19:52.719Z,97.38
2018-07-07T06:20:51.426Z,97.86
2018-07-07T06:21:53.107Z,97.86
2018-07-07T06:22:53.696Z,97.76
2018-07-07T06:24:16.357Z,97.66
2018-07-07T06:25:13.156Z,97.56
2018-07-07T06:26:13.597Z,97.81
2018-07-07T06:27:14.926Z,97.86
2018-07-07T06:28:15.196Z,97.42
2018-07-07T06:29:16.911Z,97.28
2018-07-07T06:30:15.191Z,97.66
2018-07-07T06:31:35.148Z,96.94
2018-07-07T06:32:41.343Z,96.37
2018-07-07T06:33:37.430Z,95.75
2018-07-07T06:34:35.073Z,95.45
2018-07-07T06:35:36.525Z,94.73
2018-07-07T06:36:39.226Z,93.87
2018-07-07T06:37:35.111Z,93.33
2018-07-07T06:38:39.277Z,92.57
2018-07-07T06:39:34.953Z,92.08
2018-07-07T06:40:34.648Z,91.41
2018-07-07T06:41:36.600Z,91.27
2018-07-07T06:42:35.488Z,91.27
2018-07-07T06:43:36.747Z,90.30
2018-07-07T06:44:36.624Z,89.39
2018-07-07T06:45:35.256Z,88.90
2018-07-07T06:46:34.867Z,87.94
2018-07-07T06:47:34.887Z,88.42
2018-07-07T06:48:34.604Z,88.81
2018-07-07T06:49:35.196Z,88.46
2018-07-07T06:50:34.755Z,87.50
2018-07-07T06:51:35.386Z,87.46
2018-07-07T06:52:35.342Z,87.26
2018-07-07T06:53:35.384Z,87.12
2018-07-07T06:54:56.518Z,86.69
2018-07-07T06:55:57.482Z,87.40
2018-07-07T06:56:57.150Z,85.57
2018-07-07T06:57:56.812Z,84.36
2018-07-07T06:59:19.095Z,83.59
2018-07-07T07:00:19.854Z,82.92
2018-07-07T07:01:19.634Z,81.85
2018-07-07T07:02:40.908Z,80.89
2018-07-07T07:03:41.450Z,81.24
2018-07-07T07:04:40.945Z,82.87
2018-07-07T07:05:41.624Z,84.80
2018-07-07T07:06:41.436Z,84.95
2018-07-07T07:07:41.366Z,84.80
2018-07-07T07:08:41.042Z,84.66
2018-07-07T07:10:02.993Z,82.93
2018-07-07T07:11:03.891Z,81.10
2018-07-07T07:12:04.128Z,81.10
2018-07-07T07:13:03.840Z,81.20
2018-07-07T07:14:24.981Z,82.64
2018-07-07T07:15:25.587Z,83.03
2018-07-07T07:16:25.226Z,83.41
2018-07-07T07:17:25.210Z,83.70
2018-07-07T07:18:25.163Z,84.18
2018-07-07T07:19:25.785Z,84.47
2018-07-07T07:20:25.450Z,83.41
2018-07-07T07:21:25.364Z,83.45
2018-07-07T07:22:25.874Z,82.97
2018-07-07T07:23:25.756Z,81.52
2018-07-07T07:24:25.964Z,80.37
2018-07-07T07:25:25.670Z,79.50
2018-07-07T07:26:25.397Z,80.18
2018-07-07T07:27:46.642Z,80.76
2018-07-07T07:28:47.359Z,80.85
2018-07-07T07:29:47.287Z,81.81
2018-07-07T07:30:47.234Z,80.89
2018-07-07T07:32:08.434Z,79.64
2018-07-07T07:33:30.759Z,77.42
2018-07-07T07:34:31.303Z,77.13
2018-07-07T07:35:31.985Z,77.51
2018-07-07T07:36:31.874Z,78.29
2018-07-07T07:37:31.551Z,77.90
2018-07-07T07:38:31.283Z,76.36
2018-07-07T07:39:31.044Z,75.97
2018-07-07T07:40:30.809Z,74.91
2018-07-07T07:41:53.117Z,76.75
2018-07-07T07:42:53.861Z,75.88
2018-07-07T07:43:54.104Z,75.68
2018-07-07T07:44:53.567Z,76.10
2018-07-07T07:46:16.771Z,75.62
2018-07-07T07:47:17.685Z,75.34
2018-07-07T07:48:17.413Z,75.37
2018-07-07T07:49:17.016Z,74.89
2018-07-07T07:50:16.835Z,75.18
2018-07-07T07:51:17.533Z,72.90
2018-07-07T07:52:17.521Z,73.38
2018-07-07T07:53:17.285Z,71.39
2018-07-07T07:54:17.039Z,69.88
2018-07-07T07:55:17.793Z,67.69
2018-07-07T07:56:17.506Z,66.66
2018-07-07T07:57:17.347Z,63.11
2018-07-07T07:58:17.126Z,62.53
2018-07-07T07:59:17.236Z,62.92
2018-07-07T08:00:40.405Z,62.34
2018-07-07T08:01:41.727Z,62.69
2018-07-07T08:02:43.520Z,63.27
2018-07-07T08:03:41.927Z,62.82
2018-07-07T08:04:41.033Z,62.53
2018-07-07T08:05:41.141Z,63.49
2018-07-07T08:06:41.180Z,62.24
2018-07-07T08:07:41.220Z,61.59
2018-07-07T08:08:40.651Z,61.52
2018-07-07T08:09:41.070Z,59.91
2018-07-07T08:10:41.199Z,59.94
2018-07-07T08:11:41.040Z,59.36
2018-07-07T08:12:40.994Z,58.87
2018-07-07T08:13:42.104Z,58.61
2018-07-07T08:14:40.761Z,58.31
2018-07-07T08:15:41.656Z,58.51
2018-07-07T08:16:41.249Z,58.41
2018-07-07T08:17:40.798Z,58.05
2018-07-07T08:18:42.745Z,57.86
2018-07-07T08:19:40.855Z,57.31
2018-07-07T08:20:40.682Z,56.62
2018-07-07T08:21:41.385Z,57.11
2018-07-07T08:22:41.188Z,56.52
2018-07-07T08:23:41.346Z,56.21
2018-07-07T08:24:41.272Z,55.85
2018-07-07T08:25:41.010Z,55.73
2018-07-07T08:26:40.895Z,56.14
2018-07-07T08:27:40.527Z,55.65
2018-07-07T08:28:41.200Z,55.07
2018-07-07T08:29:40.862Z,56.01
2018-07-07T08:30:42.233Z,55.73
2018-07-07T08:31:44.726Z,55.55
2018-07-07T08:32:41.162Z,55.46
2018-07-07T08:33:41.098Z,54.78
2018-07-07T08:34:40.975Z,55.10
2018-07-07T08:35:40.736Z,54.32
2018-07-07T08:36:40.365Z,53.83
2018-07-07T08:37:40.894Z,53.91
2018-07-07T08:38:40.786Z,54.71
2018-07-07T08:39:40.553Z,53.74
2018-07-07T08:40:41.129Z,53.28
2018-07-07T08:41:40.909Z,52.79
2018-07-07T08:42:40.578Z,52.40
2018-07-07T08:43:41.151Z,53.28
2018-07-07T08:44:40.714Z,52.89
2018-07-07T08:45:40.532Z,52.43
2018-07-07T08:46:42.082Z,52.01
2018-07-07T08:47:41.276Z,52.82
2018-07-07T08:48:42.088Z,51.36
2018-07-07T08:49:40.572Z,51.51
2018-07-07T08:50:41.154Z,50.34
2018-07-07T08:51:40.966Z,50.07
2018-07-07T08:52:40.646Z,49.32
2018-07-07T08:54:02.540Z,48.12
2018-07-07T08:55:03.131Z,49.17
2018-07-07T08:56:02.889Z,48.97
2018-07-07T08:57:03.616Z,49.07
2018-07-07T08:58:03.274Z,49.66
2018-07-07T08:59:03.118Z,49.34
2018-07-07T09:00:02.828Z,48.58
2018-07-07T09:01:02.398Z,49.37
2018-07-07T09:02:03.067Z,49.15
2018-07-07T09:03:02.705Z,49.61
2018-07-07T09:04:03.349Z,50.95
2018-07-07T09:05:02.761Z,51.31
2018-07-07T09:06:03.489Z,50.04
2018-07-07T09:07:03.466Z,49.82
2018-07-07T09:08:03.060Z,49.90
2018-07-07T09:09:02.776Z,50.84
2018-07-07T09:10:03.609Z,52.34
2018-07-07T09:11:28.405Z,53.70
2018-07-07T09:12:28.840Z,53.31
2018-07-07T09:13:27.668Z,53.63
2018-07-07T09:14:28.928Z,52.91
2018-07-07T09:15:27.447Z,51.50
2018-07-07T09:16:27.882Z,50.07
2018-07-07T09:17:27.743Z,48.73
2018-07-07T09:18:50.117Z,48.83
2018-07-07T09:19:51.784Z,48.54
2018-07-07T09:20:49.940Z,48.71
2018-07-07T09:21:49.654Z,49.37
2018-07-07T09:22:49.283Z,50.12
2018-07-07T09:23:49.217Z,49.82
2018-07-07T09:24:49.826Z,50.34
2018-07-07T09:25:49.586Z,49.97
2018-07-07T09:26:49.251Z,49.12
2018-07-07T09:27:49.095Z,48.58
2018-07-07T09:28:49.723Z,47.63
2018-07-07T09:29:49.471Z,46.97
2018-07-07T09:30:49.205Z,47.17
2018-07-07T09:31:52.015Z,47.25
2018-07-07T09:32:48.754Z,47.52
2018-07-07T09:33:50.009Z,48.17
2018-07-07T09:34:49.756Z,48.63
2018-07-07T09:35:49.623Z,49.95
2018-07-07T09:37:10.906Z,50.89
2018-07-07T09:38:11.785Z,51.72
2018-07-07T09:39:11.251Z,51.14
2018-07-07T09:40:12.068Z,51.60
2018-07-07T09:41:33.067Z,52.55
2018-07-07T09:42:33.897Z,51.89
2018-07-07T09:43:34.278Z,51.79
2018-07-07T09:44:34.673Z,51.75
2018-07-07T09:45:54.766Z,52.86
2018-07-07T09:46:55.596Z,53.39
2018-07-07T09:47:55.069Z,53.83
2018-07-07T09:48:55.860Z,51.53
2018-07-07T09:49:55.467Z,50.92
2018-07-07T09:50:55.106Z,48.90
2018-07-07T09:52:18.117Z,49.02
2018-07-07T09:53:18.085Z,49.00
2018-07-07T09:54:39.689Z,49.54
2018-07-07T09:55:40.466Z,49.95
2018-07-07T09:56:40.416Z,50.14
2018-07-07T09:57:40.277Z,48.71
2018-07-07T09:58:40.018Z,48.12
2018-07-07T09:59:39.670Z,47.75
2018-07-07T10:00:40.282Z,47.66
2018-07-07T10:01:40.020Z,48.02
2018-07-07T10:02:40.089Z,48.49
2018-07-07T10:03:39.650Z,48.66
2018-07-07T10:04:40.281Z,48.83
2018-07-07T10:06:22.487Z,49.58
2018-07-07T10:07:23.081Z,49.90
2018-07-07T10:08:23.315Z,50.02
2018-07-07T10:09:44.710Z,49.78
2018-07-07T10:10:44.471Z,48.61
2018-07-07T10:11:45.192Z,48.51
2018-07-07T10:13:06.537Z,48.88
2018-07-07T10:14:28.813Z,49.80
2018-07-07T10:15:29.368Z,50.26
2018-07-07T10:16:29.100Z,51.11
2018-07-07T10:17:28.801Z,52.13
2018-07-07T10:18:29.469Z,52.78
2018-07-07T10:19:29.275Z,53.47
2018-07-07T10:20:29.263Z,53.92
2018-07-07T10:21:29.096Z,53.59
2018-07-07T10:22:29.571Z,53.13
2018-07-07T10:23:29.460Z,52.78
2018-07-07T10:24:29.019Z,53.27
2018-07-07T10:25:29.877Z,53.34
2018-07-07T10:26:51.205Z,54.58
2018-07-07T10:27:51.770Z,55.52
2018-07-07T10:28:51.648Z,55.16
2018-07-07T10:29:51.132Z,53.97
2018-07-07T10:30:53.846Z,53.69
2018-07-07T10:31:51.427Z,53.66
2018-07-07T10:32:51.914Z,52.15
2018-07-07T10:33:52.428Z,51.01
2018-07-07T10:34:52.121Z,50.16
2018-07-07T10:35:52.128Z,50.29
2018-07-07T10:36:51.812Z,48.83
2018-07-07T10:37:51.234Z,49.71
2018-07-07T10:38:51.823Z,48.54
2018-07-07T10:39:52.538Z,49.15
2018-07-07T10:40:51.095Z,48.12
2018-07-07T10:41:52.930Z,47.44
2018-07-07T10:42:51.824Z,47.90
2018-07-07T10:43:51.546Z,48.25
2018-07-07T10:44:51.519Z,48.34
2018-07-07T10:45:51.318Z,48.51
2018-07-07T10:46:51.385Z,46.49
2018-07-07T10:48:12.256Z,45.95
2018-07-07T10:49:12.900Z,44.76
2018-07-07T10:50:12.672Z,45.71
2018-07-07T10:51:13.305Z,45.61
2018-07-07T10:52:56.004Z,46.10
2018-07-07T10:53:55.832Z,46.04
2018-07-07T10:55:18.105Z,44.35
2018-07-07T10:56:43.838Z,42.11
2018-07-07T10:57:40.750Z,41.64
2018-07-07T10:58:40.468Z,41.56
2018-07-07T10:59:41.718Z,41.36
2018-07-07T11:00:40.436Z,42.69
2018-07-07T11:02:03.064Z,43.61
2018-07-07T11:03:04.377Z,44.15
2018-07-07T11:04:03.955Z,45.71
2018-07-07T11:05:47.474Z,47.98
2018-07-07T11:07:31.484Z,47.53
2018-07-07T11:08:32.308Z,47.15
2018-07-07T11:09:32.145Z,47.03
2018-07-07T11:11:15.289Z,47.10
2018-07-07T11:12:17.514Z,47.32
2018-07-07T11:13:35.985Z,45.71
2018-07-07T11:14:36.757Z,45.03
2018-07-07T11:15:58.727Z,43.82
2018-07-07T11:18:04.971Z,42.35
2018-07-07T11:19:06.994Z,42.29
2018-07-07T11:20:06.063Z,40.60
2018-07-07T11:21:05.127Z,39.92
2018-07-07T11:22:04.914Z,41.05
2018-07-07T11:23:05.602Z,42.75
2018-07-07T11:24:08.937Z,42.83
2018-07-07T11:25:05.630Z,43.32
2018-07-07T11:26:05.461Z,43.33
2018-07-07T11:27:05.542Z,43.16
2018-07-07T11:28:05.024Z,42.52
2018-07-07T11:29:04.705Z,40.50
2018-07-07T11:30:05.330Z,40.16
2018-07-07T11:31:26.413Z,39.39
2018-07-07T11:32:27.219Z,39.31
2018-07-07T11:33:26.944Z,39.14
2018-07-07T11:34:27.211Z,38.53
2018-07-07T11:35:27.129Z,38.96
2018-07-07T11:36:26.759Z,40.37
2018-07-07T11:37:26.365Z,41.72
2018-07-07T11:38:49.408Z,41.52
2018-07-07T11:39:49.273Z,42.22
2018-07-07T11:40:50.266Z,41.74
2018-07-07T11:41:49.959Z,41.17
2018-07-07T11:42:49.643Z,40.70
2018-07-07T11:44:11.075Z,40.03
2018-07-07T11:45:11.206Z,40.25
2018-07-07T11:46:10.906Z,39.01
2018-07-07T11:47:32.242Z,39.04
2018-07-07T11:48:32.854Z,40.09
2018-07-07T11:49:33.716Z,40.27
2018-07-07T11:51:17.209Z,40.80
2018-07-07T11:52:37.995Z,39.56
2018-07-07T11:53:38.409Z,39.00
2018-07-07T11:54:39.931Z,38.12
2018-07-07T11:55:39.099Z,38.72
2018-07-07T11:56:40.101Z,37.52
2018-07-07T11:57:40.934Z,38.59
2018-07-07T11:58:38.922Z,38.90
2018-07-07T11:59:38.690Z,38.31
2018-07-07T12:00:38.329Z,37.96
2018-07-07T12:01:39.084Z,38.75
2018-07-07T12:03:02.580Z,38.26
2018-07-07T12:04:04.862Z,38.26
2018-07-07T12:05:02.716Z,38.04
2018-07-07T12:06:04.035Z,38.16
2018-07-07T12:07:24.387Z,38.47
2018-07-07T12:08:47.365Z,37.79
2018-07-07T12:09:48.085Z,37.61
2018-07-07T12:10:47.764Z,37.54
2018-07-07T12:12:09.073Z,36.29
2018-07-07T12:13:09.762Z,36.09
2018-07-07T12:14:31.754Z,35.50
2018-07-07T12:15:32.568Z,35.96
2018-07-07T12:16:53.661Z,36.84
2018-07-07T12:17:54.485Z,37.25
2018-07-07T12:18:54.150Z,36.68
2018-07-07T12:19:53.907Z,36.49
2018-07-07T12:20:54.773Z,36.39
2018-07-07T12:21:54.735Z,35.89
2018-07-07T12:22:54.883Z,35.23
2018-07-07T12:23:54.625Z,35.99
2018-07-07T12:25:16.415Z,36.40
2018-07-07T12:26:17.055Z,35.74
2018-07-07T12:27:16.876Z,34.87
2018-07-07T12:28:16.596Z,34.99
2018-07-07T12:29:37.756Z,33.22
2018-07-07T12:30:38.819Z,33.80
2018-07-07T12:31:38.861Z,34.28
2018-07-07T12:32:38.497Z,34.47
2018-07-07T12:33:39.800Z,34.18
2018-07-07T12:35:21.914Z,33.89
2018-07-07T12:36:23.165Z,34.08
2018-07-07T12:37:22.043Z,34.66
2018-07-07T12:38:22.157Z,34.46
2018-07-07T12:39:22.672Z,34.74
2018-07-07T12:40:22.886Z,35.82
2018-07-07T12:41:22.581Z,35.31
2018-07-07T12:42:23.103Z,35.13
2018-07-07T12:43:45.706Z,35.83
2018-07-07T12:45:07.456Z,34.46
2018-07-07T12:46:08.790Z,34.18
2018-07-07T12:47:08.050Z,33.20
2018-07-07T12:48:30.500Z,33.48
2018-07-07T12:49:55.217Z,34.23
2018-07-07T12:50:55.317Z,35.11
2018-07-07T12:51:55.240Z,34.03
2018-07-07T12:52:54.727Z,34.34
2018-07-07T12:53:55.675Z,33.77
2018-07-07T12:54:55.861Z,33.56
2018-07-07T12:55:56.160Z,34.05
2018-07-07T12:56:55.003Z,34.33
2018-07-07T12:57:54.912Z,34.51
2018-07-07T12:58:56.002Z,34.20
2018-07-07T12:59:55.945Z,33.98
2018-07-07T13:00:56.230Z,34.08
2018-07-07T13:01:54.711Z,34.38
2018-07-07T13:03:19.170Z,34.47
2018-07-07T13:04:20.436Z,35.17
2018-07-07T13:05:19.309Z,34.31
2018-07-07T13:06:20.715Z,34.90
2018-07-07T13:07:19.624Z,33.94
2018-07-07T13:08:19.763Z,33.82
2018-07-07T13:09:41.943Z,34.51
2018-07-07T13:11:03.464Z,35.13
2018-07-07T13:12:04.315Z,33.38
2018-07-07T13:13:04.317Z,33.38
2018-07-07T13:14:03.949Z,34.46
2018-07-07T13:15:04.075Z,34.75
2018-07-07T13:16:03.853Z,34.06
2018-07-07T13:17:04.105Z,34.25
2018-07-07T13:19:08.644Z,35.31
2018-07-07T13:20:09.394Z,35.80
2018-07-07T13:21:09.241Z,35.00
2018-07-07T13:22:09.150Z,35.41
2018-07-07T13:23:08.897Z,35.91
2018-07-07T13:24:08.572Z,34.92
2018-07-07T13:25:31.007Z,34.34
2018-07-07T13:26:31.856Z,33.64
2018-07-07T13:27:32.030Z,34.11
2018-07-07T13:28:31.512Z,34.80
2018-07-07T13:29:31.359Z,35.49
2018-07-07T13:30:30.982Z,35.11
2018-07-07T13:31:30.753Z,34.25
2018-07-07T13:32:31.265Z,33.67
2018-07-07T13:33:31.859Z,33.36
2018-07-07T13:34:31.619Z,33.80
2018-07-07T13:35:31.636Z,34.00
2018-07-07T13:36:31.912Z,34.00
2018-07-07T13:37:53.570Z,34.00
2018-07-07T13:38:53.766Z,33.70